sensor_id;sensor_type;location;lat;lon;timestamp;temperature;humidity
790;DHT22;378;48.844;9.156;2023-03-24T00:02:13;12.80;99.90
790;DHT22;378;48.844;9.156;2023-03-24T00:04:41;12.70;99.90
790;DHT22;378;48.844;9.156;2023-03-24T00:07:08;12.60;99.90
790;DHT22;378;48.844;9.156;2023-03-24T00:09:39;12.60;99.90
790;DHT22;378;48.844;9.156;2023-03-24T00:12:08;12.60;99.90
790;DHT22;378;48.844;9.156;2023-03-24T00:14:36;12.60;99.90
790;DHT22;378;48.844;9.156;2023-03-24T00:17:04;12.60;99.90
790;DHT22;378;48.844;9.156;2023-03-24T00:19:31;12.50;99.90
790;DHT22;378;48.844;9.156;2023-03-24T00:22:03;12.50;99.90
790;DHT22;378;48.844;9.156;2023-03-24T00:24:30;12.50;99.90
790;DHT22;378;48.844;9.156;2023-03-24T00:26:57;12.50;99.90
790;DHT22;378;48.844;9.156;2023-03-24T00:29:25;12.60;99.90
790;DHT22;378;48.844;9.156;2023-03-24T00:31:53;12.80;99.90
790;DHT22;378;48.844;9.156;2023-03-24T00:34:20;12.90;99.90
790;DHT22;378;48.844;9.156;2023-03-24T00:36:47;13.10;99.90
790;DHT22;378;48.844;9.156;2023-03-24T00:39:14;13.20;99.90
790;DHT22;378;48.844;9.156;2023-03-24T00:41:42;13.30;99.90
790;DHT22;378;48.844;9.156;2023-03-24T00:44:11;13.40;99.90
790;DHT22;378;48.844;9.156;2023-03-24T00:46:43;13.60;99.90
790;DHT22;378;48.844;9.156;2023-03-24T00:49:20;13.60;99.90
790;DHT22;378;48.844;9.156;2023-03-24T00:52:06;13.60;99.90
790;DHT22;378;48.844;9.156;2023-03-24T00:54:34;13.80;99.90
790;DHT22;378;48.844;9.156;2023-03-24T00:57:02;13.80;99.90
790;DHT22;378;48.844;9.156;2023-03-24T00:59:29;13.80;99.90
790;DHT22;378;48.844;9.156;2023-03-24T01:01:58;13.80;99.90
790;DHT22;378;48.844;9.156;2023-03-24T01:04:25;13.90;99.90
790;DHT22;378;48.844;9.156;2023-03-24T01:06:52;14.00;99.90
790;DHT22;378;48.844;9.156;2023-03-24T01:09:23;14.00;99.90
790;DHT22;378;48.844;9.156;2023-03-24T01:11:50;13.90;99.90
790;DHT22;378;48.844;9.156;2023-03-24T01:14:17;13.90;99.90
790;DHT22;378;48.844;9.156;2023-03-24T01:16:44;13.90;99.90
790;DHT22;378;48.844;9.156;2023-03-24T01:19:13;13.90;99.90
790;DHT22;378;48.844;9.156;2023-03-24T01:21:41;13.90;99.90
790;DHT22;378;48.844;9.156;2023-03-24T01:24:08;13.90;99.90
790;DHT22;378;48.844;9.156;2023-03-24T01:26:35;13.90;99.90
790;DHT22;378;48.844;9.156;2023-03-24T01:29:02;13.90;99.90
790;DHT22;378;48.844;9.156;2023-03-24T01:31:29;13.90;99.90
790;DHT22;378;48.844;9.156;2023-03-24T01:33:56;14.00;99.90
790;DHT22;378;48.844;9.156;2023-03-24T01:36:24;14.00;99.90
790;DHT22;378;48.844;9.156;2023-03-24T01:38:51;14.00;99.90
790;DHT22;378;48.844;9.156;2023-03-24T01:41:18;14.10;99.90
790;DHT22;378;48.844;9.156;2023-03-24T01:43:45;14.10;99.90
790;DHT22;378;48.844;9.156;2023-03-24T01:46:15;14.10;99.90
790;DHT22;378;48.844;9.156;2023-03-24T01:48:46;13.90;99.90
790;DHT22;378;48.844;9.156;2023-03-24T01:51:17;13.80;99.90
790;DHT22;378;48.844;9.156;2023-03-24T01:53:50;13.70;99.90
790;DHT22;378;48.844;9.156;2023-03-24T01:56:18;13.70;99.90
790;DHT22;378;48.844;9.156;2023-03-24T01:58:49;13.70;99.90
790;DHT22;378;48.844;9.156;2023-03-24T02:01:17;13.60;99.90
790;DHT22;378;48.844;9.156;2023-03-24T02:03:45;13.70;99.90
790;DHT22;378;48.844;9.156;2023-03-24T02:06:12;13.70;99.90
790;DHT22;378;48.844;9.156;2023-03-24T02:08:48;13.70;99.90
790;DHT22;378;48.844;9.156;2023-03-24T02:11:18;13.60;99.90
790;DHT22;378;48.844;9.156;2023-03-24T02:13:45;13.60;99.90
790;DHT22;378;48.844;9.156;2023-03-24T02:16:18;13.70;99.90
790;DHT22;378;48.844;9.156;2023-03-24T02:18:55;13.70;99.90
790;DHT22;378;48.844;9.156;2023-03-24T02:22:04;13.80;99.90
790;DHT22;378;48.844;9.156;2023-03-24T02:25:01;13.90;99.90
790;DHT22;378;48.844;9.156;2023-03-24T02:27:53;14.00;99.90
790;DHT22;378;48.844;9.156;2023-03-24T02:30:50;14.20;99.90
790;DHT22;378;48.844;9.156;2023-03-24T02:33:47;14.40;99.90
790;DHT22;378;48.844;9.156;2023-03-24T02:36:59;14.40;99.90
790;DHT22;378;48.844;9.156;2023-03-24T02:39:51;14.50;99.90
790;DHT22;378;48.844;9.156;2023-03-24T02:42:27;14.50;99.90
790;DHT22;378;48.844;9.156;2023-03-24T02:45:09;14.50;99.90
790;DHT22;378;48.844;9.156;2023-03-24T02:47:45;14.40;99.90
790;DHT22;378;48.844;9.156;2023-03-24T02:50:22;14.30;99.90
790;DHT22;378;48.844;9.156;2023-03-24T02:52:58;14.30;99.90
790;DHT22;378;48.844;9.156;2023-03-24T02:55:32;14.20;99.90
790;DHT22;378;48.844;9.156;2023-03-24T02:58:02;14.30;99.90
790;DHT22;378;48.844;9.156;2023-03-24T03:00:34;14.40;99.90
790;DHT22;378;48.844;9.156;2023-03-24T03:03:07;14.50;99.90
790;DHT22;378;48.844;9.156;2023-03-24T03:05:37;14.50;99.90
790;DHT22;378;48.844;9.156;2023-03-24T03:08:07;14.60;99.90
790;DHT22;378;48.844;9.156;2023-03-24T03:10:37;14.70;99.90
790;DHT22;378;48.844;9.156;2023-03-24T03:13:10;14.70;99.90
790;DHT22;378;48.844;9.156;2023-03-24T03:15:41;14.80;99.90
790;DHT22;378;48.844;9.156;2023-03-24T03:18:16;14.80;99.90
790;DHT22;378;48.844;9.156;2023-03-24T03:20:47;14.80;99.90
790;DHT22;378;48.844;9.156;2023-03-24T03:23:21;14.80;99.90
790;DHT22;378;48.844;9.156;2023-03-24T03:25:55;14.70;99.90
790;DHT22;378;48.844;9.156;2023-03-24T03:28:31;14.80;99.90
790;DHT22;378;48.844;9.156;2023-03-24T03:31:01;14.90;99.90
790;DHT22;378;48.844;9.156;2023-03-24T03:33:35;14.90;99.90
790;DHT22;378;48.844;9.156;2023-03-24T03:36:08;14.80;99.90
790;DHT22;378;48.844;9.156;2023-03-24T03:38:44;14.80;99.90
790;DHT22;378;48.844;9.156;2023-03-24T03:41:15;14.90;99.90
790;DHT22;378;48.844;9.156;2023-03-24T03:43:43;14.90;99.90
790;DHT22;378;48.844;9.156;2023-03-24T03:46:11;14.80;99.90
790;DHT22;378;48.844;9.156;2023-03-24T03:48:38;14.80;99.90
790;DHT22;378;48.844;9.156;2023-03-24T03:51:06;14.80;99.90
790;DHT22;378;48.844;9.156;2023-03-24T03:53:39;14.70;99.90
790;DHT22;378;48.844;9.156;2023-03-24T03:56:09;14.70;99.90
790;DHT22;378;48.844;9.156;2023-03-24T03:58:38;14.70;99.90
790;DHT22;378;48.844;9.156;2023-03-24T04:01:07;14.60;99.90
790;DHT22;378;48.844;9.156;2023-03-24T04:03:52;14.70;99.90
790;DHT22;378;48.844;9.156;2023-03-24T04:06:31;14.80;99.90
790;DHT22;378;48.844;9.156;2023-03-24T04:09:12;14.80;99.90
790;DHT22;378;48.844;9.156;2023-03-24T04:11:57;14.70;99.90
790;DHT22;378;48.844;9.156;2023-03-24T04:17:25;14.80;99.90
790;DHT22;378;48.844;9.156;2023-03-24T04:20:04;14.80;99.90
790;DHT22;378;48.844;9.156;2023-03-24T04:22:42;15.00;99.90
790;DHT22;378;48.844;9.156;2023-03-24T04:25:19;15.10;99.90
790;DHT22;378;48.844;9.156;2023-03-24T04:27:57;15.20;99.90
790;DHT22;378;48.844;9.156;2023-03-24T04:30:31;15.20;99.90
790;DHT22;378;48.844;9.156;2023-03-24T04:33:07;15.30;99.90
790;DHT22;378;48.844;9.156;2023-03-24T04:35:39;15.30;99.90
790;DHT22;378;48.844;9.156;2023-03-24T04:38:11;15.20;99.90
790;DHT22;378;48.844;9.156;2023-03-24T04:40:44;15.20;99.90
790;DHT22;378;48.844;9.156;2023-03-24T04:43:16;15.20;99.90
790;DHT22;378;48.844;9.156;2023-03-24T04:45:46;15.20;99.90
790;DHT22;378;48.844;9.156;2023-03-24T04:48:16;15.30;99.90
790;DHT22;378;48.844;9.156;2023-03-24T04:50:48;15.20;99.90
790;DHT22;378;48.844;9.156;2023-03-24T04:53:16;15.20;99.90
790;DHT22;378;48.844;9.156;2023-03-24T04:55:54;15.20;99.90
790;DHT22;378;48.844;9.156;2023-03-24T04:58:22;15.20;99.90
790;DHT22;378;48.844;9.156;2023-03-24T05:00:51;15.30;99.90
790;DHT22;378;48.844;9.156;2023-03-24T05:03:20;15.20;99.90
790;DHT22;378;48.844;9.156;2023-03-24T05:05:48;15.30;99.90
790;DHT22;378;48.844;9.156;2023-03-24T05:08:16;15.30;99.90
790;DHT22;378;48.844;9.156;2023-03-24T05:10:43;15.30;99.90
790;DHT22;378;48.844;9.156;2023-03-24T05:13:11;15.20;99.90
790;DHT22;378;48.844;9.156;2023-03-24T05:15:38;15.20;99.90
790;DHT22;378;48.844;9.156;2023-03-24T05:18:07;15.10;99.90
790;DHT22;378;48.844;9.156;2023-03-24T05:20:34;15.00;99.90
790;DHT22;378;48.844;9.156;2023-03-24T05:23:01;14.80;99.90
790;DHT22;378;48.844;9.156;2023-03-24T05:25:27;14.50;99.90
790;DHT22;378;48.844;9.156;2023-03-24T05:27:54;14.10;99.90
790;DHT22;378;48.844;9.156;2023-03-24T05:30:21;13.80;99.90
790;DHT22;378;48.844;9.156;2023-03-24T05:32:48;13.50;99.90
790;DHT22;378;48.844;9.156;2023-03-24T05:35:16;13.30;99.90
790;DHT22;378;48.844;9.156;2023-03-24T05:37:43;13.10;99.90
790;DHT22;378;48.844;9.156;2023-03-24T05:40:11;12.90;99.90
790;DHT22;378;48.844;9.156;2023-03-24T05:42:38;12.60;99.90
790;DHT22;378;48.844;9.156;2023-03-24T05:45:06;12.50;99.90
790;DHT22;378;48.844;9.156;2023-03-24T05:47:33;12.30;99.90
790;DHT22;378;48.844;9.156;2023-03-24T05:50:00;12.10;99.90
790;DHT22;378;48.844;9.156;2023-03-24T05:52:28;12.00;99.90
790;DHT22;378;48.844;9.156;2023-03-24T05:54:56;12.00;99.90
790;DHT22;378;48.844;9.156;2023-03-24T05:57:23;11.80;99.90
790;DHT22;378;48.844;9.156;2023-03-24T05:59:49;11.70;99.90
790;DHT22;378;48.844;9.156;2023-03-24T06:02:17;11.60;99.90
790;DHT22;378;48.844;9.156;2023-03-24T06:04:44;11.60;99.90
790;DHT22;378;48.844;9.156;2023-03-24T06:07:13;11.60;99.90
790;DHT22;378;48.844;9.156;2023-03-24T06:09:42;11.60;99.90
790;DHT22;378;48.844;9.156;2023-03-24T06:12:11;11.60;99.90
790;DHT22;378;48.844;9.156;2023-03-24T06:14:38;11.70;99.90
790;DHT22;378;48.844;9.156;2023-03-24T06:17:06;11.70;99.90
790;DHT22;378;48.844;9.156;2023-03-24T06:19:33;11.70;99.90
790;DHT22;378;48.844;9.156;2023-03-24T06:22:03;11.70;99.90
790;DHT22;378;48.844;9.156;2023-03-24T06:24:30;11.70;99.90
790;DHT22;378;48.844;9.156;2023-03-24T06:26:59;11.80;99.90
790;DHT22;378;48.844;9.156;2023-03-24T06:29:27;11.80;99.90
790;DHT22;378;48.844;9.156;2023-03-24T06:31:55;11.80;99.90
790;DHT22;378;48.844;9.156;2023-03-24T06:34:22;11.80;99.90
790;DHT22;378;48.844;9.156;2023-03-24T06:36:49;11.80;99.90
790;DHT22;378;48.844;9.156;2023-03-24T06:39:17;11.90;99.90
790;DHT22;378;48.844;9.156;2023-03-24T06:41:44;11.90;99.90
790;DHT22;378;48.844;9.156;2023-03-24T06:44:12;12.00;99.90
790;DHT22;378;48.844;9.156;2023-03-24T06:46:39;12.00;99.90
790;DHT22;378;48.844;9.156;2023-03-24T06:49:06;12.00;99.90
790;DHT22;378;48.844;9.156;2023-03-24T06:51:33;12.00;99.90
790;DHT22;378;48.844;9.156;2023-03-24T06:54:00;12.10;99.90
790;DHT22;378;48.844;9.156;2023-03-24T06:56:28;12.20;99.90
790;DHT22;378;48.844;9.156;2023-03-24T06:58:55;12.20;99.90
790;DHT22;378;48.844;9.156;2023-03-24T07:01:23;12.20;99.90
790;DHT22;378;48.844;9.156;2023-03-24T07:03:50;12.30;99.90
790;DHT22;378;48.844;9.156;2023-03-24T07:06:18;12.30;99.90
790;DHT22;378;48.844;9.156;2023-03-24T07:08:47;12.40;99.90
790;DHT22;378;48.844;9.156;2023-03-24T07:11:14;12.50;99.90
790;DHT22;378;48.844;9.156;2023-03-24T07:13:41;12.60;99.90
790;DHT22;378;48.844;9.156;2023-03-24T07:16:07;12.60;99.90
790;DHT22;378;48.844;9.156;2023-03-24T07:18:36;12.60;99.90
790;DHT22;378;48.844;9.156;2023-03-24T07:21:03;12.60;99.90
790;DHT22;378;48.844;9.156;2023-03-24T07:23:32;12.60;99.90
790;DHT22;378;48.844;9.156;2023-03-24T07:25:59;12.50;99.90
790;DHT22;378;48.844;9.156;2023-03-24T07:28:26;12.40;99.90
790;DHT22;378;48.844;9.156;2023-03-24T07:30:53;12.40;99.90
790;DHT22;378;48.844;9.156;2023-03-24T07:33:20;12.30;99.90
790;DHT22;378;48.844;9.156;2023-03-24T07:35:53;12.20;99.90
790;DHT22;378;48.844;9.156;2023-03-24T07:38:20;12.10;99.90
790;DHT22;378;48.844;9.156;2023-03-24T07:40:47;12.10;99.90
790;DHT22;378;48.844;9.156;2023-03-24T07:43:14;12.00;99.90
790;DHT22;378;48.844;9.156;2023-03-24T07:45:43;12.00;99.90
790;DHT22;378;48.844;9.156;2023-03-24T07:48:09;12.00;99.90
790;DHT22;378;48.844;9.156;2023-03-24T07:50:36;12.00;99.90
790;DHT22;378;48.844;9.156;2023-03-24T07:53:05;12.00;99.90
790;DHT22;378;48.844;9.156;2023-03-24T07:55:34;12.00;99.90
790;DHT22;378;48.844;9.156;2023-03-24T07:58:01;11.90;99.90
790;DHT22;378;48.844;9.156;2023-03-24T08:00:28;11.90;99.90
790;DHT22;378;48.844;9.156;2023-03-24T08:02:57;11.90;99.90
790;DHT22;378;48.844;9.156;2023-03-24T08:05:28;12.00;99.90
790;DHT22;378;48.844;9.156;2023-03-24T08:07:55;12.00;99.90
790;DHT22;378;48.844;9.156;2023-03-24T08:10:25;12.00;99.90
790;DHT22;378;48.844;9.156;2023-03-24T08:12:53;12.00;99.90
790;DHT22;378;48.844;9.156;2023-03-24T08:15:20;12.00;99.90
790;DHT22;378;48.844;9.156;2023-03-24T08:17:48;12.00;99.90
790;DHT22;378;48.844;9.156;2023-03-24T08:20:16;12.00;99.90
790;DHT22;378;48.844;9.156;2023-03-24T08:22:45;12.10;99.90
790;DHT22;378;48.844;9.156;2023-03-24T08:25:15;12.10;99.90
790;DHT22;378;48.844;9.156;2023-03-24T08:27:44;12.10;99.90
790;DHT22;378;48.844;9.156;2023-03-24T08:30:14;12.20;99.90
790;DHT22;378;48.844;9.156;2023-03-24T08:32:43;12.20;99.90
790;DHT22;378;48.844;9.156;2023-03-24T08:35:12;12.30;99.90
790;DHT22;378;48.844;9.156;2023-03-24T08:37:40;12.30;99.90
790;DHT22;378;48.844;9.156;2023-03-24T08:40:08;12.20;99.90
790;DHT22;378;48.844;9.156;2023-03-24T08:42:39;12.30;99.90
790;DHT22;378;48.844;9.156;2023-03-24T08:45:09;12.30;99.90
790;DHT22;378;48.844;9.156;2023-03-24T08:47:37;12.30;99.90
790;DHT22;378;48.844;9.156;2023-03-24T08:50:05;12.30;99.90
790;DHT22;378;48.844;9.156;2023-03-24T08:52:32;12.50;99.90
790;DHT22;378;48.844;9.156;2023-03-24T08:54:59;12.50;99.90
790;DHT22;378;48.844;9.156;2023-03-24T08:57:26;12.50;99.90
790;DHT22;378;48.844;9.156;2023-03-24T08:59:53;12.60;99.90
790;DHT22;378;48.844;9.156;2023-03-24T09:02:21;12.80;99.90
790;DHT22;378;48.844;9.156;2023-03-24T09:04:48;12.90;99.90
790;DHT22;378;48.844;9.156;2023-03-24T09:07:18;13.10;99.90
790;DHT22;378;48.844;9.156;2023-03-24T09:09:45;13.10;99.90
790;DHT22;378;48.844;9.156;2023-03-24T09:12:12;13.20;99.90
790;DHT22;378;48.844;9.156;2023-03-24T09:14:39;13.40;99.90
790;DHT22;378;48.844;9.156;2023-03-24T09:17:06;13.30;99.90
790;DHT22;378;48.844;9.156;2023-03-24T09:19:34;13.30;99.90
790;DHT22;378;48.844;9.156;2023-03-24T09:22:02;13.20;99.90
790;DHT22;378;48.844;9.156;2023-03-24T09:24:28;13.20;99.90
790;DHT22;378;48.844;9.156;2023-03-24T09:26:55;13.10;99.90
790;DHT22;378;48.844;9.156;2023-03-24T09:29:22;13.20;99.90
790;DHT22;378;48.844;9.156;2023-03-24T09:31:50;13.30;99.90
790;DHT22;378;48.844;9.156;2023-03-24T09:34:18;13.50;99.90
790;DHT22;378;48.844;9.156;2023-03-24T09:36:46;13.60;99.90
790;DHT22;378;48.844;9.156;2023-03-24T09:39:13;13.80;99.90
790;DHT22;378;48.844;9.156;2023-03-24T09:41:42;13.90;99.90
790;DHT22;378;48.844;9.156;2023-03-24T09:44:20;13.90;99.90
790;DHT22;378;48.844;9.156;2023-03-24T09:46:50;13.80;99.90
790;DHT22;378;48.844;9.156;2023-03-24T09:49:21;13.90;99.90
790;DHT22;378;48.844;9.156;2023-03-24T09:51:53;13.70;99.90
790;DHT22;378;48.844;9.156;2023-03-24T09:54:27;13.70;99.90
790;DHT22;378;48.844;9.156;2023-03-24T09:56:57;13.80;99.90
790;DHT22;378;48.844;9.156;2023-03-24T09:59:32;14.00;99.90
790;DHT22;378;48.844;9.156;2023-03-24T10:02:00;14.50;99.90
790;DHT22;378;48.844;9.156;2023-03-24T10:04:28;15.20;99.90
790;DHT22;378;48.844;9.156;2023-03-24T10:07:02;15.60;99.90
790;DHT22;378;48.844;9.156;2023-03-24T10:09:33;16.20;99.90
790;DHT22;378;48.844;9.156;2023-03-24T10:12:15;16.70;99.90
790;DHT22;378;48.844;9.156;2023-03-24T10:14:54;16.60;99.90
790;DHT22;378;48.844;9.156;2023-03-24T10:17:30;16.60;99.90
790;DHT22;378;48.844;9.156;2023-03-24T10:20:03;16.90;99.90
790;DHT22;378;48.844;9.156;2023-03-24T10:22:37;17.00;99.90
790;DHT22;378;48.844;9.156;2023-03-24T10:25:12;16.60;99.90
790;DHT22;378;48.844;9.156;2023-03-24T10:27:42;16.40;99.90
790;DHT22;378;48.844;9.156;2023-03-24T10:30:15;16.60;99.90
790;DHT22;378;48.844;9.156;2023-03-24T10:32:43;16.80;99.90
790;DHT22;378;48.844;9.156;2023-03-24T10:35:15;17.00;99.90
790;DHT22;378;48.844;9.156;2023-03-24T10:37:45;17.00;99.90
790;DHT22;378;48.844;9.156;2023-03-24T10:40:17;16.90;99.90
790;DHT22;378;48.844;9.156;2023-03-24T10:42:46;16.80;99.90
790;DHT22;378;48.844;9.156;2023-03-24T10:45:27;16.60;99.90
790;DHT22;378;48.844;9.156;2023-03-24T10:47:57;16.50;99.90
790;DHT22;378;48.844;9.156;2023-03-24T10:50:27;16.60;99.90
790;DHT22;378;48.844;9.156;2023-03-24T10:52:56;16.80;99.90
790;DHT22;378;48.844;9.156;2023-03-24T10:55:28;16.90;99.90
790;DHT22;378;48.844;9.156;2023-03-24T10:57:58;16.80;99.90
790;DHT22;378;48.844;9.156;2023-03-24T11:00:26;17.00;99.90
790;DHT22;378;48.844;9.156;2023-03-24T11:02:58;17.10;99.90
790;DHT22;378;48.844;9.156;2023-03-24T11:05:28;17.00;99.90
790;DHT22;378;48.844;9.156;2023-03-24T11:08:11;16.90;99.90
790;DHT22;378;48.844;9.156;2023-03-24T11:10:40;17.00;99.90
790;DHT22;378;48.844;9.156;2023-03-24T11:13:16;17.20;99.90
790;DHT22;378;48.844;9.156;2023-03-24T11:15:52;17.30;99.90
790;DHT22;378;48.844;9.156;2023-03-24T11:18:21;17.60;99.90
790;DHT22;378;48.844;9.156;2023-03-24T11:20:52;17.50;99.90
790;DHT22;378;48.844;9.156;2023-03-24T11:23:28;17.30;99.90
790;DHT22;378;48.844;9.156;2023-03-24T11:26:12;17.30;99.90
790;DHT22;378;48.844;9.156;2023-03-24T11:28:41;17.20;99.90
790;DHT22;378;48.844;9.156;2023-03-24T11:31:11;17.30;99.90
790;DHT22;378;48.844;9.156;2023-03-24T11:33:47;17.50;99.90
790;DHT22;378;48.844;9.156;2023-03-24T11:36:47;17.70;99.90
790;DHT22;378;48.844;9.156;2023-03-24T11:39:20;18.70;99.90
790;DHT22;378;48.844;9.156;2023-03-24T11:42:05;19.30;99.90
790;DHT22;378;48.844;9.156;2023-03-24T11:44:44;18.70;99.90
790;DHT22;378;48.844;9.156;2023-03-24T11:47:14;18.00;99.90
790;DHT22;378;48.844;9.156;2023-03-24T11:49:45;17.30;99.90
790;DHT22;378;48.844;9.156;2023-03-24T11:52:20;17.00;99.90
790;DHT22;378;48.844;9.156;2023-03-24T11:54:49;16.70;99.90
790;DHT22;378;48.844;9.156;2023-03-24T11:57:21;16.60;99.90
790;DHT22;378;48.844;9.156;2023-03-24T11:59:54;16.30;99.90
790;DHT22;378;48.844;9.156;2023-03-24T12:02:29;15.80;99.90
790;DHT22;378;48.844;9.156;2023-03-24T12:05:20;15.60;99.90
790;DHT22;378;48.844;9.156;2023-03-24T12:08:25;15.50;99.90
790;DHT22;378;48.844;9.156;2023-03-24T12:11:06;15.70;99.90
790;DHT22;378;48.844;9.156;2023-03-24T12:13:36;15.70;99.90
790;DHT22;378;48.844;9.156;2023-03-24T12:16:19;15.70;99.90
790;DHT22;378;48.844;9.156;2023-03-24T12:19:00;15.80;99.90
790;DHT22;378;48.844;9.156;2023-03-24T12:21:44;16.20;99.90
790;DHT22;378;48.844;9.156;2023-03-24T12:24:21;16.60;99.90
790;DHT22;378;48.844;9.156;2023-03-24T12:26:57;16.70;99.90
790;DHT22;378;48.844;9.156;2023-03-24T12:29:39;16.50;99.90
790;DHT22;378;48.844;9.156;2023-03-24T12:32:22;16.50;99.90
790;DHT22;378;48.844;9.156;2023-03-24T12:35:15;16.50;99.90
790;DHT22;378;48.844;9.156;2023-03-24T12:37:50;16.50;99.90
790;DHT22;378;48.844;9.156;2023-03-24T12:40:41;16.30;99.90
790;DHT22;378;48.844;9.156;2023-03-24T12:43:22;16.10;99.90
790;DHT22;378;48.844;9.156;2023-03-24T12:45:53;15.80;99.90
790;DHT22;378;48.844;9.156;2023-03-24T12:48:43;15.80;99.90
790;DHT22;378;48.844;9.156;2023-03-24T12:51:20;15.70;99.90
790;DHT22;378;48.844;9.156;2023-03-24T12:53:57;15.70;99.90
790;DHT22;378;48.844;9.156;2023-03-24T12:56:33;15.90;99.90
790;DHT22;378;48.844;9.156;2023-03-24T12:59:08;16.20;99.90
790;DHT22;378;48.844;9.156;2023-03-24T13:01:38;16.40;99.90
790;DHT22;378;48.844;9.156;2023-03-24T13:04:09;16.40;99.90
790;DHT22;378;48.844;9.156;2023-03-24T13:06:42;16.40;99.90
790;DHT22;378;48.844;9.156;2023-03-24T13:09:17;16.40;99.90
790;DHT22;378;48.844;9.156;2023-03-24T13:11:54;16.30;99.90
790;DHT22;378;48.844;9.156;2023-03-24T13:14:28;16.20;99.90
790;DHT22;378;48.844;9.156;2023-03-24T13:17:04;16.20;99.90
790;DHT22;378;48.844;9.156;2023-03-24T13:19:33;16.30;99.90
790;DHT22;378;48.844;9.156;2023-03-24T13:22:01;16.30;99.90
790;DHT22;378;48.844;9.156;2023-03-24T13:24:30;16.50;99.90
790;DHT22;378;48.844;9.156;2023-03-24T13:27:05;16.60;99.90
790;DHT22;378;48.844;9.156;2023-03-24T13:30:12;16.30;99.90
790;DHT22;378;48.844;9.156;2023-03-24T13:32:43;15.60;99.90
790;DHT22;378;48.844;9.156;2023-03-24T13:35:17;14.90;99.90
790;DHT22;378;48.844;9.156;2023-03-24T13:37:49;14.40;99.90
790;DHT22;378;48.844;9.156;2023-03-24T13:40:22;14.10;99.90
790;DHT22;378;48.844;9.156;2023-03-24T13:42:53;13.70;99.90
790;DHT22;378;48.844;9.156;2023-03-24T13:45:26;13.60;99.90
790;DHT22;378;48.844;9.156;2023-03-24T13:48:14;13.50;99.90
790;DHT22;378;48.844;9.156;2023-03-24T13:50:53;13.20;99.90
790;DHT22;378;48.844;9.156;2023-03-24T13:53:30;13.00;99.90
790;DHT22;378;48.844;9.156;2023-03-24T13:55:59;13.00;99.90
790;DHT22;378;48.844;9.156;2023-03-24T13:58:44;12.90;99.90
790;DHT22;378;48.844;9.156;2023-03-24T14:01:29;12.90;99.90
790;DHT22;378;48.844;9.156;2023-03-24T14:04:26;12.80;99.90
790;DHT22;378;48.844;9.156;2023-03-24T14:06:54;12.60;99.90
790;DHT22;378;48.844;9.156;2023-03-24T14:09:23;12.50;99.90
790;DHT22;378;48.844;9.156;2023-03-24T14:12:16;12.30;99.90
790;DHT22;378;48.844;9.156;2023-03-24T14:15:17;12.20;99.90
790;DHT22;378;48.844;9.156;2023-03-24T14:17:47;12.00;99.90
790;DHT22;378;48.844;9.156;2023-03-24T14:20:32;11.80;99.90
790;DHT22;378;48.844;9.156;2023-03-24T14:23:00;11.60;99.90
790;DHT22;378;48.844;9.156;2023-03-24T14:25:30;11.50;99.90
790;DHT22;378;48.844;9.156;2023-03-24T14:28:16;11.30;99.90
790;DHT22;378;48.844;9.156;2023-03-24T14:30:59;11.10;99.90
790;DHT22;378;48.844;9.156;2023-03-24T14:33:29;11.00;99.90
790;DHT22;378;48.844;9.156;2023-03-24T14:36:00;10.90;99.90
790;DHT22;378;48.844;9.156;2023-03-24T14:38:34;10.80;99.90
790;DHT22;378;48.844;9.156;2023-03-24T14:41:06;10.90;99.90
790;DHT22;378;48.844;9.156;2023-03-24T14:43:53;10.90;99.90
790;DHT22;378;48.844;9.156;2023-03-24T14:46:34;10.90;99.90
790;DHT22;378;48.844;9.156;2023-03-24T14:49:10;11.00;99.90
790;DHT22;378;48.844;9.156;2023-03-24T14:51:42;11.00;99.90
790;DHT22;378;48.844;9.156;2023-03-24T14:54:15;10.90;99.90
790;DHT22;378;48.844;9.156;2023-03-24T14:56:46;10.80;99.90
790;DHT22;378;48.844;9.156;2023-03-24T14:59:25;10.80;99.90
790;DHT22;378;48.844;9.156;2023-03-24T15:01:59;10.70;99.90
790;DHT22;378;48.844;9.156;2023-03-24T15:04:28;10.60;99.90
790;DHT22;378;48.844;9.156;2023-03-24T15:06:55;10.60;99.90
790;DHT22;378;48.844;9.156;2023-03-24T15:09:22;10.60;99.90
790;DHT22;378;48.844;9.156;2023-03-24T15:11:48;10.60;99.90
790;DHT22;378;48.844;9.156;2023-03-24T15:14:21;10.60;99.90
790;DHT22;378;48.844;9.156;2023-03-24T15:16:54;10.60;99.90
790;DHT22;378;48.844;9.156;2023-03-24T15:19:24;10.60;99.90
790;DHT22;378;48.844;9.156;2023-03-24T15:21:59;10.60;99.90
790;DHT22;378;48.844;9.156;2023-03-24T15:24:32;10.60;99.90
790;DHT22;378;48.844;9.156;2023-03-24T15:27:23;10.60;99.90
790;DHT22;378;48.844;9.156;2023-03-24T15:29:56;10.60;99.90
790;DHT22;378;48.844;9.156;2023-03-24T15:32:25;10.70;99.90
790;DHT22;378;48.844;9.156;2023-03-24T15:34:57;10.80;99.90
790;DHT22;378;48.844;9.156;2023-03-24T15:37:30;10.90;99.90
790;DHT22;378;48.844;9.156;2023-03-24T15:39:58;10.90;99.90
790;DHT22;378;48.844;9.156;2023-03-24T15:42:25;10.90;99.90
790;DHT22;378;48.844;9.156;2023-03-24T15:44:53;11.00;99.90
790;DHT22;378;48.844;9.156;2023-03-24T15:47:22;11.00;99.90
790;DHT22;378;48.844;9.156;2023-03-24T15:49:52;11.20;99.90
790;DHT22;378;48.844;9.156;2023-03-24T15:52:29;11.30;99.90
790;DHT22;378;48.844;9.156;2023-03-24T15:55:00;11.40;99.90
790;DHT22;378;48.844;9.156;2023-03-24T15:57:34;11.40;99.90
790;DHT22;378;48.844;9.156;2023-03-24T16:00:10;11.50;99.90
790;DHT22;378;48.844;9.156;2023-03-24T16:02:43;11.60;99.90
790;DHT22;378;48.844;9.156;2023-03-24T16:05:15;11.70;99.90
790;DHT22;378;48.844;9.156;2023-03-24T16:07:53;11.90;99.90
790;DHT22;378;48.844;9.156;2023-03-24T16:10:31;11.90;99.90
790;DHT22;378;48.844;9.156;2023-03-24T16:13:03;11.90;99.90
790;DHT22;378;48.844;9.156;2023-03-24T16:15:37;12.10;99.90
790;DHT22;378;48.844;9.156;2023-03-24T16:18:04;12.50;99.90
790;DHT22;378;48.844;9.156;2023-03-24T16:20:30;13.40;99.90
790;DHT22;378;48.844;9.156;2023-03-24T16:22:59;13.50;99.90
790;DHT22;378;48.844;9.156;2023-03-24T16:25:25;13.30;99.90
790;DHT22;378;48.844;9.156;2023-03-24T16:27:52;13.00;99.90
790;DHT22;378;48.844;9.156;2023-03-24T16:30:23;12.90;99.90
790;DHT22;378;48.844;9.156;2023-03-24T16:32:50;12.70;99.90
790;DHT22;378;48.844;9.156;2023-03-24T16:35:17;12.50;99.90
790;DHT22;378;48.844;9.156;2023-03-24T16:37:44;12.30;99.90
790;DHT22;378;48.844;9.156;2023-03-24T16:40:20;12.20;99.90
790;DHT22;378;48.844;9.156;2023-03-24T16:42:47;12.10;99.90
790;DHT22;378;48.844;9.156;2023-03-24T16:45:15;12.10;99.90
790;DHT22;378;48.844;9.156;2023-03-24T16:47:41;12.10;99.90
790;DHT22;378;48.844;9.156;2023-03-24T16:50:27;12.10;99.90
790;DHT22;378;48.844;9.156;2023-03-24T16:52:54;12.20;99.90
790;DHT22;378;48.844;9.156;2023-03-24T16:55:23;12.00;99.90
790;DHT22;378;48.844;9.156;2023-03-24T16:57:50;12.10;99.90
790;DHT22;378;48.844;9.156;2023-03-24T17:00:17;12.00;99.90
790;DHT22;378;48.844;9.156;2023-03-24T17:02:44;12.00;99.90
790;DHT22;378;48.844;9.156;2023-03-24T17:05:18;11.80;99.90
790;DHT22;378;48.844;9.156;2023-03-24T17:07:46;11.80;99.90
790;DHT22;378;48.844;9.156;2023-03-24T17:10:13;11.70;99.90